createdAt,value
2019-05-26T00:00:15.271Z,48.10
2019-05-26T00:03:23.123Z,47.13
2019-05-26T00:06:31.151Z,48.10
2019-05-26T00:09:39.178Z,51.60
2019-05-26T00:12:49.735Z,45.13
2019-05-26T00:15:57.590Z,44.23
2019-05-26T00:19:05.581Z,47.50
2019-05-26T00:22:13.532Z,47.60
2019-05-26T00:25:21.700Z,48.23
2019-05-26T00:28:30.518Z,48.60
2019-05-26T00:31:38.148Z,48.87
2019-05-26T00:34:47.362Z,48.30
2019-05-26T00:37:55.228Z,45.60
2019-05-26T00:41:03.312Z,43.30
2019-05-26T00:44:11.182Z,45.83
2019-05-26T00:47:19.040Z,44.77
2019-05-26T00:50:26.986Z,45.90
2019-05-26T00:53:35.235Z,45.23
2019-05-26T00:56:43.533Z,45.60
2019-05-26T00:59:51.096Z,43.40
2019-05-26T01:02:58.776Z,44.03
2019-05-26T01:06:06.660Z,43.60
2019-05-26T01:09:14.685Z,43.53
2019-05-26T01:12:22.415Z,45.67
2019-05-26T01:15:31.462Z,42.77
2019-05-26T01:18:39.312Z,44.10
2019-05-26T01:21:47.045Z,41.87
2019-05-26T01:24:54.921Z,41.67
2019-05-26T01:28:02.961Z,43.63
2019-05-26T01:31:11.016Z,42.47
2019-05-26T01:34:21.933Z,42.57
2019-05-26T01:37:29.659Z,41.17
2019-05-26T01:40:42.461Z,45.00
2019-05-26T01:43:50.235Z,44.17
2019-05-26T01:46:58.203Z,43.77
2019-05-26T01:50:06.199Z,44.20
2019-05-26T01:53:14.194Z,43.23
2019-05-26T01:56:22.113Z,48.13
2019-05-26T01:59:29.977Z,47.57
2019-05-26T02:02:37.726Z,47.40
2019-05-26T02:05:45.679Z,48.03
2019-05-26T02:08:55.661Z,47.57
2019-05-26T02:12:03.888Z,45.73
2019-05-26T02:15:12.009Z,47.97
2019-05-26T02:18:22.637Z,48.67
2019-05-26T02:21:30.598Z,47.27
2019-05-26T02:24:39.860Z,56.93
2019-05-26T02:27:48.069Z,53.27
2019-05-26T02:30:57.093Z,49.50
2019-05-26T02:34:07.988Z,48.60
2019-05-26T02:37:16.088Z,48.33
2019-05-26T02:40:24.610Z,45.07
2019-05-26T02:43:32.820Z,48.70
2019-05-26T02:46:40.677Z,50.97
2019-05-26T02:49:50.675Z,49.97
2019-05-26T02:52:58.928Z,48.30
2019-05-26T02:56:07.136Z,48.43
2019-05-26T02:59:15.271Z,48.00
2019-05-26T03:02:23.227Z,48.87
2019-05-26T03:05:32.779Z,48.40
2019-05-26T03:08:41.465Z,48.17
2019-05-26T03:11:50.950Z,48.27
2019-05-26T03:15:00.474Z,45.40
2019-05-26T03:18:08.319Z,42.17
2019-05-26T03:21:20.638Z,43.27
2019-05-26T03:24:32.381Z,44.27
2019-05-26T03:27:40.200Z,44.33
2019-05-26T03:30:48.129Z,47.80
2019-05-26T03:33:57.667Z,48.70
2019-05-26T03:37:05.553Z,46.37
2019-05-26T03:40:13.565Z,45.70
2019-05-26T03:43:23.310Z,47.70
2019-05-26T03:46:30.865Z,46.10
2019-05-26T03:49:38.432Z,44.87
2019-05-26T03:52:47.848Z,43.77
2019-05-26T03:55:55.890Z,43.80
2019-05-26T03:59:03.409Z,46.17
2019-05-26T04:02:12.227Z,41.77
2019-05-26T04:05:20.153Z,37.47
2019-05-26T04:08:28.126Z,36.97
2019-05-26T04:11:36.022Z,39.00
2019-05-26T04:14:43.526Z,33.43
2019-05-26T04:17:51.374Z,29.70
2019-05-26T04:20:59.154Z,32.07
2019-05-26T04:24:06.889Z,34.70
2019-05-26T04:27:14.680Z,32.67
2019-05-26T04:30:22.430Z,29.07
2019-05-26T04:33:30.207Z,28.40
2019-05-26T04:36:37.946Z,27.03
2019-05-26T04:39:50.184Z,31.07
2019-05-26T04:42:57.995Z,29.17
2019-05-26T04:46:06.153Z,29.00
2019-05-26T04:49:13.803Z,28.70
2019-05-26T04:52:21.590Z,28.10
2019-05-26T04:55:29.483Z,29.90
2019-05-26T04:58:37.161Z,27.23
2019-05-26T05:01:44.895Z,28.13
2019-05-26T05:04:53.027Z,24.40
2019-05-26T05:08:00.942Z,27.17
2019-05-26T05:11:12.388Z,24.10
2019-05-26T05:14:20.164Z,25.70
2019-05-26T05:17:27.963Z,22.57
2019-05-26T05:20:35.708Z,26.43
2019-05-26T05:23:43.651Z,23.23
2019-05-26T05:26:51.263Z,24.30
2019-05-26T05:29:59.456Z,23.50
2019-05-26T05:33:07.405Z,24.00
2019-05-26T05:36:16.910Z,23.00
2019-05-26T05:39:27.179Z,23.80
2019-05-26T05:42:35.241Z,22.60
2019-05-26T05:45:42.912Z,23.70
2019-05-26T05:48:50.422Z,23.53
2019-05-26T05:51:58.130Z,23.10
2019-05-26T05:55:07.258Z,25.47
2019-05-26T05:58:14.990Z,24.37
2019-05-26T06:01:25.803Z,23.53
2019-05-26T06:04:33.943Z,23.63
2019-05-26T06:07:41.665Z,23.30
2019-05-26T06:10:49.374Z,23.77
2019-05-26T06:13:57.287Z,25.63
2019-05-26T06:17:05.220Z,25.33
2019-05-26T06:20:13.775Z,23.07
2019-05-26T06:23:21.675Z,24.03
2019-05-26T06:26:29.252Z,22.57
2019-05-26T06:29:38.640Z,23.23
2019-05-26T06:32:46.753Z,20.07
2019-05-26T06:35:54.279Z,20.90
2019-05-26T06:39:03.240Z,21.77
2019-05-26T06:42:13.295Z,19.17
2019-05-26T06:45:22.515Z,20.17
2019-05-26T06:48:30.638Z,19.53
2019-05-26T06:51:38.347Z,20.97
2019-05-26T06:54:47.607Z,19.93
2019-05-26T06:57:56.003Z,18.83
2019-05-26T07:01:03.882Z,18.27
2019-05-26T07:04:12.217Z,19.60
2019-05-26T07:07:23.647Z,17.77
2019-05-26T07:10:31.715Z,16.03
2019-05-26T07:13:39.378Z,9.30
2019-05-26T07:16:49.183Z,5.63
2019-05-26T07:19:57.388Z,10.47
2019-05-26T07:23:07.079Z,11.80
2019-05-26T07:26:15.161Z,11.07
2019-05-26T07:29:23.375Z,12.33
2019-05-26T07:32:31.164Z,9.40
2019-05-26T07:35:39.409Z,7.70
2019-05-26T07:38:50.689Z,8.80
2019-05-26T07:42:09.990Z,9.00
2019-05-26T07:45:11.658Z,8.43
2019-05-26T07:48:20.293Z,9.20
2019-05-26T07:51:28.705Z,9.10
2019-05-26T07:54:38.322Z,10.90
2019-05-26T07:57:47.278Z,9.50
2019-05-26T08:00:55.267Z,9.87
2019-05-26T08:04:03.443Z,10.47
2019-05-26T08:07:11.759Z,9.27
2019-05-26T08:10:19.591Z,10.30
2019-05-26T08:13:27.928Z,9.10
2019-05-26T08:16:39.139Z,8.63
2019-05-26T08:19:48.083Z,8.90
2019-05-26T08:22:56.373Z,9.77
2019-05-26T08:26:05.508Z,9.17
2019-05-26T08:29:15.201Z,7.83
2019-05-26T08:32:23.541Z,8.07
2019-05-26T08:35:32.194Z,9.47
2019-05-26T08:38:40.478Z,9.27
2019-05-26T08:41:48.651Z,8.97
2019-05-26T08:44:56.941Z,10.00
2019-05-26T08:48:05.074Z,10.35
2019-05-26T08:51:13.130Z,18.23
2019-05-26T08:54:21.306Z,11.80
2019-05-26T08:57:30.124Z,10.13
2019-05-26T09:00:38.621Z,11.17
2019-05-26T09:03:47.135Z,10.97
2019-05-26T09:06:54.907Z,11.67
2019-05-26T09:10:03.197Z,10.83
2019-05-26T09:13:11.715Z,11.57
2019-05-26T09:16:19.596Z,11.20
2019-05-26T09:19:27.170Z,9.90
2019-05-26T09:22:34.607Z,8.93
2019-05-26T09:25:42.284Z,10.33
2019-05-26T09:28:49.813Z,9.70
2019-05-26T09:31:57.354Z,9.73
2019-05-26T09:35:05.524Z,10.57
2019-05-26T09:38:13.093Z,9.70
2019-05-26T09:41:20.873Z,9.20
2019-05-26T09:44:28.517Z,8.50
2019-05-26T09:47:36.167Z,8.83
2019-05-26T09:50:43.715Z,9.10
2019-05-26T09:54:01.331Z,8.70
2019-05-26T09:57:00.866Z,9.20
2019-05-26T10:00:09.247Z,9.97
2019-05-26T10:03:17.005Z,9.07
2019-05-26T10:06:25.176Z,9.70
2019-05-26T10:09:33.097Z,10.07
2019-05-26T10:12:40.929Z,8.30
2019-05-26T10:15:49.107Z,8.07
2019-05-26T10:18:56.946Z,7.97
2019-05-26T10:22:04.893Z,7.90
2019-05-26T10:25:13.874Z,13.40
2019-05-26T10:28:21.355Z,7.97
2019-05-26T10:31:28.796Z,8.63
2019-05-26T10:34:36.211Z,7.20
2019-05-26T10:37:43.814Z,7.47
2019-05-26T10:40:51.314Z,8.07
2019-05-26T10:43:58.836Z,8.30
2019-05-26T10:47:06.538Z,7.00
2019-05-26T10:50:15.797Z,7.23
2019-05-26T10:53:23.322Z,7.23
2019-05-26T10:56:30.799Z,6.30
2019-05-26T10:59:38.473Z,6.83
2019-05-26T11:02:46.033Z,6.83
2019-05-26T11:05:53.588Z,6.40
2019-05-26T11:09:01.148Z,9.00
2019-05-26T11:12:10.192Z,6.60
2019-05-26T11:15:18.068Z,7.00
2019-05-26T11:18:25.717Z,7.30
2019-05-26T11:21:33.262Z,6.83
2019-05-26T11:24:40.752Z,6.70
2019-05-26T11:27:48.400Z,6.60
2019-05-26T11:30:55.955Z,6.90
2019-05-26T11:34:03.440Z,6.30
2019-05-26T11:37:10.876Z,6.80
2019-05-26T11:40:18.610Z,6.60
2019-05-26T11:43:26.263Z,6.67
2019-05-26T11:46:33.913Z,5.27
2019-05-26T11:49:41.600Z,6.43
2019-05-26T11:52:49.481Z,6.30
2019-05-26T11:55:57.678Z,5.87
2019-05-26T11:59:06.153Z,7.43
2019-05-26T12:02:13.782Z,13.93
2019-05-26T12:05:21.598Z,11.57
2019-05-26T12:08:29.058Z,5.87
2019-05-26T12:11:36.612Z,6.30
2019-05-26T12:14:44.113Z,5.83
2019-05-26T12:17:51.644Z,6.07
2019-05-26T12:20:59.206Z,6.40
2019-05-26T12:24:07.704Z,15.00
2019-05-26T12:27:15.304Z,7.27
2019-05-26T12:30:24.269Z,8.17
2019-05-26T12:33:31.758Z,7.17
2019-05-26T12:36:39.619Z,5.23
2019-05-26T12:39:47.472Z,5.03
2019-05-26T12:42:54.977Z,5.80
2019-05-26T12:46:02.871Z,6.00
2019-05-26T12:49:10.645Z,5.60
2019-05-26T12:52:18.296Z,5.97
2019-05-26T12:55:26.778Z,5.90
2019-05-26T12:58:34.414Z,6.00
2019-05-26T13:01:42.579Z,6.43
2019-05-26T13:04:50.234Z,6.20
2019-05-26T13:07:57.880Z,6.03
2019-05-26T13:11:05.451Z,7.27
2019-05-26T13:14:12.932Z,6.20
2019-05-26T13:17:20.392Z,5.90
2019-05-26T13:20:28.031Z,6.23
2019-05-26T13:23:35.728Z,6.03
2019-05-26T13:26:43.478Z,6.23
2019-05-26T13:29:50.965Z,5.40
2019-05-26T13:32:58.643Z,6.07
2019-05-26T13:36:06.946Z,5.70
2019-05-26T13:39:14.471Z,6.40
2019-05-26T13:42:21.908Z,7.17
2019-05-26T13:45:29.654Z,6.03
2019-05-26T13:48:37.259Z,5.13
2019-05-26T13:51:45.483Z,5.90
2019-05-26T13:54:54.032Z,5.70
2019-05-26T13:58:01.826Z,5.77
2019-05-26T14:01:09.558Z,5.23
2019-05-26T14:04:17.014Z,6.70
2019-05-26T14:07:24.658Z,6.83
2019-05-26T14:10:34.298Z,8.10
2019-05-26T14:13:41.778Z,6.37
2019-05-26T14:16:52.524Z,6.50
2019-05-26T14:20:02.543Z,5.63
2019-05-26T14:23:10.857Z,6.00
2019-05-26T14:26:18.361Z,6.60
2019-05-26T14:29:25.818Z,6.20
2019-05-26T14:32:33.322Z,6.20
2019-05-26T14:35:41.826Z,6.47
2019-05-26T14:38:49.356Z,6.43
2019-05-26T14:41:57.370Z,5.63
2019-05-26T14:45:05.544Z,5.60
2019-05-26T14:48:14.082Z,6.23
2019-05-26T14:51:21.551Z,7.10
2019-05-26T14:54:29.052Z,6.80
2019-05-26T14:57:36.524Z,5.70
2019-05-26T15:00:44.107Z,6.30
2019-05-26T15:03:51.604Z,5.90
2019-05-26T15:06:59.133Z,7.03
2019-05-26T15:10:06.921Z,6.80
2019-05-26T15:13:14.410Z,5.87
2019-05-26T15:16:21.866Z,7.57
2019-05-26T15:19:29.434Z,6.33
2019-05-26T15:22:37.267Z,6.43
2019-05-26T15:25:44.734Z,5.17
2019-05-26T15:28:52.268Z,6.33
2019-05-26T15:32:02.739Z,5.70
2019-05-26T15:35:10.698Z,6.20
2019-05-26T15:38:18.427Z,6.00
2019-05-26T15:41:26.040Z,5.87
2019-05-26T15:44:33.496Z,5.70
2019-05-26T15:47:41.026Z,6.07
2019-05-26T15:50:48.544Z,6.73
2019-05-26T15:53:56.064Z,7.40
2019-05-26T15:57:03.646Z,7.90
2019-05-26T16:00:11.527Z,6.37
2019-05-26T16:03:19.042Z,5.70
2019-05-26T16:06:26.484Z,5.13
2019-05-26T16:09:34.071Z,5.30
2019-05-26T16:12:41.542Z,5.67
2019-05-26T16:15:49.070Z,5.23
2019-05-26T16:18:56.533Z,4.70
2019-05-26T16:22:04.023Z,4.90
2019-05-26T16:25:11.726Z,4.47
2019-05-26T16:28:19.248Z,4.77
2019-05-26T16:31:26.782Z,4.10
2019-05-26T16:34:34.474Z,5.00
2019-05-26T16:37:41.966Z,4.70
2019-05-26T16:40:49.567Z,5.37
2019-05-26T16:43:57.189Z,5.00
2019-05-26T16:47:04.699Z,4.60
2019-05-26T16:50:12.366Z,4.57
2019-05-26T16:53:19.834Z,4.70
2019-05-26T16:56:27.271Z,4.70
2019-05-26T16:59:36.441Z,4.50
2019-05-26T17:02:43.990Z,4.53
2019-05-26T17:06:06.821Z,5.50
2019-05-26T17:09:01.035Z,5.17
2019-05-26T17:12:10.088Z,5.83
2019-05-26T17:15:17.640Z,5.77
2019-05-26T17:18:25.068Z,5.63
2019-05-26T17:21:32.746Z,6.13
2019-05-26T17:24:40.328Z,5.57
2019-05-26T17:27:47.937Z,6.17
2019-05-26T17:30:55.699Z,5.43
2019-05-26T17:34:04.205Z,6.13
2019-05-26T17:37:11.637Z,6.37
2019-05-26T17:40:20.671Z,8.17
2019-05-26T17:43:28.167Z,6.47
2019-05-26T17:46:35.599Z,6.27
2019-05-26T17:49:43.054Z,6.30
2019-05-26T17:52:51.677Z,7.03
2019-05-26T17:55:59.099Z,6.70
2019-05-26T17:59:06.692Z,9.13
2019-05-26T18:02:14.219Z,7.93
2019-05-26T18:05:21.783Z,9.60
2019-05-26T18:08:29.356Z,9.40
2019-05-26T18:11:38.065Z,8.67
2019-05-26T18:14:45.637Z,7.90
2019-05-26T18:17:53.166Z,8.40
2019-05-26T18:21:00.709Z,10.67
2019-05-26T18:24:08.158Z,8.00
2019-05-26T18:27:15.655Z,10.53
2019-05-26T18:30:23.277Z,8.90
2019-05-26T18:33:30.883Z,9.43
2019-05-26T18:36:38.369Z,10.43
2019-05-26T18:39:45.899Z,9.70
2019-05-26T18:42:53.812Z,10.33
2019-05-26T18:46:01.278Z,8.40
2019-05-26T18:49:09.166Z,8.50
2019-05-26T18:52:16.817Z,9.03
2019-05-26T18:55:24.386Z,9.00
2019-05-26T18:58:31.983Z,11.93
2019-05-26T19:01:39.610Z,10.80
2019-05-26T19:04:47.263Z,11.07
2019-05-26T19:07:54.881Z,11.80
2019-05-26T19:11:02.433Z,12.67
2019-05-26T19:14:10.215Z,13.07
2019-05-26T19:17:18.331Z,16.50
2019-05-26T19:20:25.873Z,33.60
2019-05-26T19:23:33.409Z,29.13
2019-05-26T19:26:41.041Z,21.50
2019-05-26T19:29:48.643Z,16.63
2019-05-26T19:32:56.096Z,12.30
2019-05-26T19:36:08.841Z,15.00
2019-05-26T19:39:12.931Z,14.60
2019-05-26T19:42:20.585Z,11.30
2019-05-26T19:45:28.468Z,10.97
2019-05-26T19:48:37.328Z,11.67
2019-05-26T19:51:45.461Z,12.93
2019-05-26T19:54:53.100Z,13.13
2019-05-26T19:58:00.933Z,14.40
2019-05-26T20:01:08.504Z,11.77
2019-05-26T20:04:16.702Z,13.13
2019-05-26T20:07:24.190Z,13.80
2019-05-26T20:10:31.767Z,13.80
2019-05-26T20:13:39.399Z,14.40
2019-05-26T20:16:46.967Z,13.23
2019-05-26T20:19:54.517Z,14.47
2019-05-26T20:23:01.948Z,26.10
2019-05-26T20:26:09.494Z,28.50
2019-05-26T20:29:17.290Z,22.40
2019-05-26T20:32:24.913Z,17.10
2019-05-26T20:35:32.545Z,17.70
2019-05-26T20:38:40.027Z,16.00
2019-05-26T20:41:47.478Z,15.27
2019-05-26T20:44:56.533Z,16.63
2019-05-26T20:48:04.109Z,16.47
2019-05-26T20:51:11.519Z,15.63
2019-05-26T20:54:19.084Z,14.73
2019-05-26T20:57:26.518Z,15.87
2019-05-26T21:00:33.957Z,15.23
2019-05-26T21:03:41.471Z,14.70
2019-05-26T21:06:48.935Z,15.60
2019-05-26T21:09:56.434Z,15.20
2019-05-26T21:13:03.867Z,15.23
2019-05-26T21:16:11.297Z,15.30
2019-05-26T21:19:18.761Z,15.90
2019-05-26T21:22:26.191Z,19.43
2019-05-26T21:25:33.660Z,21.33
2019-05-26T21:28:41.608Z,21.50
2019-05-26T21:31:49.047Z,17.93
2019-05-26T21:34:56.599Z,17.00
2019-05-26T21:38:04.035Z,16.30
2019-05-26T21:41:11.637Z,16.50
2019-05-26T21:44:19.059Z,16.60
2019-05-26T21:47:26.619Z,17.07
2019-05-26T21:50:34.136Z,15.77
2019-05-26T21:53:41.567Z,16.40
2019-05-26T21:56:48.993Z,16.77
2019-05-26T21:59:56.441Z,16.00
2019-05-26T22:03:03.927Z,14.97
2019-05-26T22:06:11.504Z,15.23
2019-05-26T22:09:19.237Z,14.40
2019-05-26T22:12:27.145Z,14.30
2019-05-26T22:15:34.628Z,14.03
2019-05-26T22:18:42.154Z,13.80
2019-05-26T22:21:49.587Z,14.30
2019-05-26T22:24:57.278Z,13.40
2019-05-26T22:28:04.778Z,13.47
2019-05-26T22:31:13.305Z,13.97
2019-05-26T22:34:20.755Z,13.53
2019-05-26T22:37:28.255Z,12.87
2019-05-26T22:40:35.760Z,13.40
2019-05-26T22:43:43.202Z,13.90
2019-05-26T22:46:51.080Z,14.87
2019-05-26T22:50:01.141Z,14.53
2019-05-26T22:53:08.668Z,14.67
2019-05-26T22:56:16.237Z,16.00
2019-05-26T22:59:23.774Z,16.53
2019-05-26T23:02:31.258Z,16.47
2019-05-26T23:05:40.970Z,16.67
2019-05-26T23:08:48.446Z,15.03
2019-05-26T23:11:55.975Z,17.17
2019-05-26T23:15:03.597Z,15.47
2019-05-26T23:18:11.172Z,17.97
2019-05-26T23:21:18.602Z,14.87
2019-05-26T23:24:26.123Z,16.03
2019-05-26T23:27:33.563Z,14.57
2019-05-26T23:30:41.215Z,14.80
2019-05-26T23:33:48.739Z,14.50
2019-05-26T23:36:57.819Z,16.43
2019-05-26T23:40:06.292Z,15.50
2019-05-26T23:43:13.866Z,15.77
2019-05-26T23:46:21.267Z,14.40
2019-05-26T23:49:28.707Z,15.40
2019-05-26T23:52:36.202Z,14.20
2019-05-26T23:55:43.623Z,14.30
2019-05-26T23:58:51.115Z,13.80
